createdAt,value
2022-10-23T00:02:05.944Z,21.60
2022-10-23T00:04:40.355Z,21.50
2022-10-23T00:07:13.559Z,21.50
2022-10-23T00:09:47.157Z,21.50
2022-10-23T00:12:21.459Z,21.40
2022-10-23T00:14:57.686Z,21.50
2022-10-23T00:17:34.044Z,21.60
2022-10-23T00:20:08.112Z,21.70
2022-10-23T00:22:42.689Z,21.80
2022-10-23T00:25:20.251Z,21.80
2022-10-23T00:27:53.987Z,21.80
2022-10-23T00:30:29.833Z,21.90
2022-10-23T00:33:03.654Z,22.10
2022-10-23T00:35:37.264Z,22.20
2022-10-23T00:38:11.717Z,22.00
2022-10-23T00:40:46.510Z,22.10
2022-10-23T00:43:24.240Z,22.20
2022-10-23T00:46:03.898Z,22.30
2022-10-23T00:48:38.075Z,22.30
2022-10-23T00:51:12.409Z,22.30
2022-10-23T00:53:52.836Z,22.30
2022-10-23T00:56:31.694Z,22.30
2022-10-23T00:59:06.282Z,22.30
2022-10-23T01:01:43.305Z,22.50
2022-10-23T01:04:18.473Z,22.70
2022-10-23T01:07:02.073Z,22.80
2022-10-23T01:09:43.571Z,22.80
2022-10-23T01:12:27.689Z,22.80
2022-10-23T01:15:11.404Z,23.00
2022-10-23T01:17:52.517Z,23.10
2022-10-23T01:20:47.145Z,23.20
2022-10-23T01:23:59.696Z,23.50
2022-10-23T01:26:47.890Z,23.60
2022-10-23T01:29:29.603Z,23.60
2022-10-23T01:32:07.326Z,23.70
2022-10-23T01:34:48.872Z,23.70
2022-10-23T01:37:31.850Z,23.80
2022-10-23T01:40:14.051Z,23.20
2022-10-23T01:42:54.953Z,23.40
2022-10-23T01:45:41.084Z,23.50
2022-10-23T01:48:22.586Z,23.80
2022-10-23T01:50:59.351Z,23.80
2022-10-23T01:53:38.850Z,23.80
2022-10-23T01:56:16.283Z,23.70
2022-10-23T01:58:55.503Z,23.80
2022-10-23T02:01:36.792Z,23.80
2022-10-23T02:04:15.880Z,23.80
2022-10-23T02:06:52.742Z,23.90
2022-10-23T02:09:29.559Z,24.80
2022-10-23T02:12:11.614Z,25.00
2022-10-23T02:14:56.872Z,25.40
2022-10-23T02:17:46.057Z,25.30
2022-10-23T02:20:26.685Z,25.30
2022-10-23T02:23:07.000Z,25.80
2022-10-23T02:25:47.614Z,26.80
2022-10-23T02:28:25.778Z,27.10
2022-10-23T02:31:06.874Z,27.20
2022-10-23T02:33:44.023Z,27.30
2022-10-23T02:36:18.440Z,27.90
2022-10-23T02:38:53.406Z,28.20
2022-10-23T02:41:40.254Z,28.20
2022-10-23T02:44:39.118Z,28.00
2022-10-23T02:47:30.810Z,28.30
2022-10-23T02:50:14.756Z,28.20
2022-10-23T02:53:04.130Z,28.40
2022-10-23T02:55:51.355Z,28.20
2022-10-23T02:58:33.588Z,28.10
2022-10-23T03:01:14.023Z,28.60
2022-10-23T03:03:54.165Z,28.50
2022-10-23T03:06:31.115Z,28.40
2022-10-23T03:09:09.712Z,28.90
2022-10-23T03:11:48.105Z,28.70
2022-10-23T03:14:26.401Z,28.30
2022-10-23T03:17:06.123Z,28.30
2022-10-23T03:19:41.246Z,28.60
2022-10-23T03:22:18.327Z,29.30
2022-10-23T03:24:58.318Z,29.40
2022-10-23T03:27:32.964Z,29.00
2022-10-23T03:30:12.523Z,29.50
2022-10-23T03:32:48.453Z,29.50
2022-10-23T03:35:23.026Z,30.00
2022-10-23T03:38:00.933Z,30.10
2022-10-23T03:40:38.645Z,30.20
2022-10-23T03:43:13.390Z,29.60
2022-10-23T03:45:53.716Z,29.30
2022-10-23T03:48:29.557Z,29.30
2022-10-23T03:51:10.824Z,28.90
2022-10-23T03:53:50.322Z,28.40
2022-10-23T03:56:33.376Z,28.60
2022-10-23T03:59:11.739Z,28.70
2022-10-23T04:01:48.841Z,28.40
2022-10-23T04:04:29.481Z,28.50
2022-10-23T04:07:08.035Z,28.30
2022-10-23T04:09:45.613Z,28.00
2022-10-23T04:12:24.661Z,27.90
2022-10-23T04:15:01.420Z,27.90
2022-10-23T04:17:36.154Z,27.80
2022-10-23T04:20:15.693Z,27.90
2022-10-23T04:22:50.553Z,28.00
2022-10-23T04:25:31.425Z,28.10
2022-10-23T04:28:06.354Z,28.30
2022-10-23T04:30:45.870Z,28.50
2022-10-23T04:33:24.224Z,28.60
2022-10-23T04:36:00.839Z,28.20
2022-10-23T04:38:35.809Z,28.50
2022-10-23T04:41:15.266Z,28.60
2022-10-23T04:43:49.965Z,28.50
2022-10-23T04:46:25.187Z,28.40
2022-10-23T04:48:59.829Z,28.40
2022-10-23T04:51:52.683Z,28.00
2022-10-23T04:54:50.388Z,28.20
2022-10-23T04:57:35.654Z,28.30
2022-10-23T05:00:21.918Z,28.30
2022-10-23T05:03:01.365Z,28.50
2022-10-23T05:05:42.730Z,28.60
2022-10-23T05:08:37.094Z,28.50
2022-10-23T05:11:26.706Z,28.20
2022-10-23T05:14:03.910Z,28.30
2022-10-23T05:16:44.575Z,28.20
2022-10-23T05:19:27.942Z,28.20
2022-10-23T05:22:06.579Z,28.10
2022-10-23T05:28:46.362Z,28.20
2022-10-23T05:31:34.580Z,28.00
2022-10-23T05:34:16.386Z,28.30
2022-10-23T05:36:52.297Z,28.40
2022-10-23T05:39:29.888Z,28.30
2022-10-23T05:42:07.518Z,28.40
2022-10-23T05:44:42.620Z,28.70
2022-10-23T05:47:50.517Z,28.90
2022-10-23T05:50:52.014Z,28.90
2022-10-23T05:53:41.721Z,28.90
2022-10-23T05:56:34.412Z,28.70
2022-10-23T05:59:29.732Z,28.60
2022-10-23T06:02:19.961Z,28.30
2022-10-23T06:05:13.899Z,28.70
2022-10-23T06:08:14.470Z,28.30
2022-10-23T06:10:51.293Z,28.30
2022-10-23T06:13:26.574Z,28.40
2022-10-23T06:16:00.964Z,28.40
2022-10-23T06:18:39.214Z,28.40
2022-10-23T06:21:24.277Z,28.50
2022-10-23T06:24:00.775Z,28.50
2022-10-23T06:27:06.641Z,28.30
2022-10-23T06:29:49.542Z,28.20
2022-10-23T06:32:24.949Z,28.10
2022-10-23T06:35:17.351Z,28.10
2022-10-23T06:37:54.022Z,28.10
2022-10-23T06:40:48.353Z,28.20
2022-10-23T06:43:29.682Z,28.10
2022-10-23T06:46:22.536Z,28.10
2022-10-23T06:49:20.588Z,28.20
2022-10-23T06:51:57.771Z,28.30
2022-10-23T06:54:38.289Z,28.00
2022-10-23T06:57:15.065Z,27.60
2022-10-23T06:59:53.366Z,27.30
2022-10-23T07:02:32.110Z,27.60
2022-10-23T07:05:08.837Z,27.80
2022-10-23T07:07:47.347Z,28.00
2022-10-23T07:10:33.971Z,28.10
2022-10-23T07:13:08.333Z,28.10
2022-10-23T07:15:46.445Z,28.10
2022-10-23T07:18:25.798Z,28.20
2022-10-23T07:21:25.184Z,28.20
2022-10-23T07:24:02.661Z,28.10
2022-10-23T07:26:47.202Z,28.10
2022-10-23T07:29:23.320Z,28.00
2022-10-23T07:31:58.787Z,27.90
2022-10-23T07:34:34.224Z,27.90
2022-10-23T07:37:28.379Z,27.80
2022-10-23T07:40:03.405Z,27.60
2022-10-23T07:42:47.067Z,27.30
2022-10-23T07:45:23.776Z,27.20
2022-10-23T07:48:00.751Z,27.20
2022-10-23T07:50:46.744Z,27.20
2022-10-23T07:53:30.304Z,27.10
2022-10-23T07:56:25.596Z,27.00
2022-10-23T07:59:20.550Z,26.90
2022-10-23T08:02:01.098Z,26.80
2022-10-23T08:04:41.403Z,26.80
2022-10-23T08:07:28.441Z,26.80
2022-10-23T08:10:05.363Z,26.80
2022-10-23T08:12:45.533Z,26.90
2022-10-23T08:15:22.918Z,27.00
2022-10-23T08:18:02.319Z,27.00
2022-10-23T08:20:53.733Z,26.90
2022-10-23T08:23:28.486Z,26.90
2022-10-23T08:26:06.835Z,26.90
2022-10-23T08:28:47.130Z,26.90
2022-10-23T08:31:26.691Z,27.00
2022-10-23T08:34:20.071Z,26.90
2022-10-23T08:36:56.534Z,26.80
2022-10-23T08:39:31.665Z,26.80
2022-10-23T08:42:34.193Z,26.80
2022-10-23T08:45:21.342Z,26.80
2022-10-23T08:48:07.485Z,26.80
2022-10-23T08:51:26.279Z,26.80
2022-10-23T08:54:12.663Z,26.60
2022-10-23T08:56:52.494Z,26.50
2022-10-23T08:59:34.112Z,26.40
2022-10-23T09:02:17.333Z,26.20
2022-10-23T09:04:54.680Z,26.00
2022-10-23T09:07:40.979Z,25.90
2022-10-23T09:10:38.616Z,25.90
2022-10-23T09:13:42.016Z,25.90
2022-10-23T09:16:26.816Z,25.80
2022-10-23T09:19:07.671Z,25.80
2022-10-23T09:21:46.481Z,25.70
2022-10-23T09:24:22.322Z,25.70
2022-10-23T09:26:59.365Z,25.70
2022-10-23T09:29:36.915Z,25.60
2022-10-23T09:32:14.139Z,25.60
2022-10-23T09:34:58.482Z,25.50
2022-10-23T09:37:43.180Z,25.50
2022-10-23T09:40:26.510Z,25.50
2022-10-23T09:43:03.211Z,25.40
2022-10-23T09:45:40.704Z,25.30
2022-10-23T09:48:20.314Z,25.30
2022-10-23T09:51:01.404Z,25.30
2022-10-23T09:53:44.881Z,25.20
2022-10-23T09:56:31.434Z,25.10
2022-10-23T09:59:09.899Z,25.10
2022-10-23T10:01:55.457Z,25.10
2022-10-23T10:04:52.412Z,25.10
2022-10-23T10:07:31.192Z,25.10
2022-10-23T10:10:17.695Z,25.00
2022-10-23T10:13:00.215Z,25.00
2022-10-23T10:15:38.541Z,25.00
2022-10-23T10:18:19.380Z,24.90
2022-10-23T10:21:07.254Z,24.90
2022-10-23T10:23:51.697Z,24.90
2022-10-23T10:26:39.388Z,24.80
2022-10-23T10:29:31.603Z,24.80
2022-10-23T10:32:15.190Z,24.80
2022-10-23T10:34:55.837Z,24.80
2022-10-23T10:37:48.722Z,24.80
2022-10-23T10:40:31.870Z,24.80
2022-10-23T10:43:22.304Z,24.80
2022-10-23T10:46:10.253Z,24.70
2022-10-23T10:48:53.704Z,24.70
2022-10-23T10:51:53.832Z,24.80
2022-10-23T10:54:45.018Z,24.70
2022-10-23T10:57:33.522Z,24.70
2022-10-23T11:00:47.254Z,24.70
2022-10-23T11:03:43.633Z,24.70
2022-10-23T11:06:22.980Z,24.70
2022-10-23T11:09:19.231Z,24.60
2022-10-23T11:12:06.093Z,24.70
2022-10-23T11:14:42.893Z,24.60
2022-10-23T11:17:25.739Z,24.60
2022-10-23T11:20:08.110Z,24.60
2022-10-23T11:22:51.108Z,24.50
2022-10-23T11:25:51.075Z,24.60
2022-10-23T11:28:41.549Z,24.50
2022-10-23T11:31:27.462Z,24.50
2022-10-23T11:34:49.840Z,24.50
2022-10-23T11:37:32.292Z,24.50
2022-10-23T11:40:31.951Z,24.50
2022-10-23T11:43:14.924Z,24.50
2022-10-23T11:45:49.294Z,24.50
2022-10-23T11:48:41.191Z,24.40
2022-10-23T11:51:34.308Z,24.50
2022-10-23T11:54:29.002Z,24.40
2022-10-23T11:57:16.441Z,24.40
2022-10-23T12:00:00.765Z,24.40
2022-10-23T12:02:39.774Z,24.30
2022-10-23T12:05:30.842Z,24.30
2022-10-23T12:08:09.923Z,24.30
2022-10-23T12:10:53.419Z,24.30
2022-10-23T12:13:48.997Z,24.20
2022-10-23T12:16:23.916Z,24.20
2022-10-23T12:18:59.634Z,24.20
2022-10-23T12:21:43.278Z,24.20
2022-10-23T12:24:57.079Z,24.10
2022-10-23T12:27:43.173Z,24.10
2022-10-23T12:30:27.308Z,24.00
2022-10-23T12:33:17.781Z,24.00
2022-10-23T12:36:13.535Z,24.00
2022-10-23T12:38:52.812Z,24.00
2022-10-23T12:41:33.883Z,24.00
2022-10-23T12:44:14.478Z,24.00
2022-10-23T12:46:55.702Z,23.90
2022-10-23T12:49:35.213Z,23.90
2022-10-23T12:52:23.574Z,23.90
2022-10-23T12:55:05.171Z,23.80
2022-10-23T12:57:49.691Z,23.70
2022-10-23T13:00:30.853Z,23.60
2022-10-23T13:03:08.152Z,23.60
2022-10-23T13:05:43.788Z,23.60
2022-10-23T13:08:24.372Z,23.60
2022-10-23T13:11:25.152Z,23.60
2022-10-23T13:14:03.128Z,23.50
2022-10-23T13:16:38.254Z,23.50
2022-10-23T13:19:29.413Z,23.40
2022-10-23T13:22:05.246Z,23.40
2022-10-23T13:24:45.728Z,23.40
2022-10-23T13:27:36.251Z,23.40
2022-10-23T13:30:35.936Z,23.40
2022-10-23T13:33:29.478Z,23.40
2022-10-23T13:36:08.425Z,23.40
2022-10-23T13:38:45.605Z,23.40
2022-10-23T13:41:23.817Z,23.30
2022-10-23T13:43:58.948Z,23.30
2022-10-23T13:46:39.452Z,23.30
2022-10-23T13:49:14.247Z,23.30
2022-10-23T13:51:54.925Z,23.30
2022-10-23T13:54:31.049Z,23.30
2022-10-23T13:57:08.740Z,23.30
2022-10-23T13:59:44.695Z,23.30
2022-10-23T14:02:27.860Z,23.30
2022-10-23T14:05:03.404Z,23.40
2022-10-23T14:07:41.054Z,23.40
2022-10-23T14:10:15.567Z,23.40
2022-10-23T14:12:57.119Z,23.40
2022-10-23T14:15:32.011Z,23.30
2022-10-23T14:18:14.281Z,23.40
2022-10-23T14:20:49.460Z,23.30
2022-10-23T14:23:25.446Z,23.30
2022-10-23T14:26:05.352Z,23.30
2022-10-23T14:28:39.974Z,23.30
2022-10-23T14:31:18.081Z,23.30
2022-10-23T14:33:58.223Z,23.30
2022-10-23T14:36:43.113Z,23.30
2022-10-23T14:39:24.750Z,23.20
2022-10-23T14:41:59.331Z,23.10
2022-10-23T14:44:33.244Z,23.20
2022-10-23T14:47:16.055Z,23.20
2022-10-23T14:49:58.456Z,23.20
2022-10-23T14:52:33.062Z,23.20
2022-10-23T14:55:07.209Z,23.10
2022-10-23T14:57:41.827Z,23.10
2022-10-23T15:00:17.707Z,23.10
2022-10-23T15:02:54.623Z,23.20
2022-10-23T15:05:31.285Z,23.20
2022-10-23T15:08:06.129Z,22.90
2022-10-23T15:10:43.131Z,22.80
2022-10-23T15:13:18.999Z,22.70
2022-10-23T15:15:53.162Z,22.50
2022-10-23T15:18:28.698Z,22.60
2022-10-23T15:21:06.913Z,22.60
2022-10-23T15:23:45.050Z,22.40
2022-10-23T15:26:22.644Z,22.30
2022-10-23T15:29:00.658Z,22.20
2022-10-23T15:31:56.870Z,22.10
2022-10-23T15:34:33.831Z,21.90
2022-10-23T15:37:10.558Z,22.00
2022-10-23T15:39:47.202Z,22.00
2022-10-23T15:42:22.235Z,22.10
2022-10-23T15:45:01.509Z,22.10
2022-10-23T15:47:36.040Z,22.10
2022-10-23T15:50:13.033Z,22.00
2022-10-23T15:52:54.505Z,21.90
2022-10-23T15:55:28.254Z,21.60
2022-10-23T15:58:05.475Z,21.60
2022-10-23T16:00:44.964Z,21.80
2022-10-23T16:03:18.688Z,21.80
2022-10-23T16:05:53.217Z,21.80
2022-10-23T16:08:31.872Z,21.90
2022-10-23T16:11:09.224Z,22.00
2022-10-23T16:13:47.159Z,22.00
2022-10-23T16:16:36.396Z,22.00
2022-10-23T16:19:15.561Z,22.00
2022-10-23T16:21:50.451Z,21.90
2022-10-23T16:24:27.266Z,22.00
2022-10-23T16:27:02.700Z,21.90
2022-10-23T16:29:37.437Z,21.90
2022-10-23T16:32:18.292Z,21.90
2022-10-23T16:34:56.033Z,21.90
2022-10-23T16:37:31.454Z,21.90
2022-10-23T16:40:16.653Z,21.90
2022-10-23T16:43:08.681Z,21.90
2022-10-23T16:45:51.551Z,21.90
2022-10-23T16:48:27.908Z,21.90
2022-10-23T16:51:01.753Z,22.00
2022-10-23T16:53:40.352Z,21.90
2022-10-23T16:56:22.982Z,21.80
2022-10-23T17:01:39.391Z,21.90
2022-10-23T17:04:16.936Z,21.90
2022-10-23T17:06:50.829Z,21.80
2022-10-23T17:09:25.446Z,21.60
2022-10-23T17:12:02.382Z,21.40
2022-10-23T17:14:37.456Z,21.10
2022-10-23T17:17:13.201Z,20.90
2022-10-23T17:19:47.595Z,20.70
2022-10-23T17:22:25.108Z,20.70
2022-10-23T17:24:59.636Z,20.70
2022-10-23T17:27:36.502Z,20.80
2022-10-23T17:30:12.821Z,20.90
2022-10-23T17:32:50.746Z,21.00
2022-10-23T17:35:25.313Z,21.00
2022-10-23T17:38:02.567Z,21.00
2022-10-23T17:40:36.034Z,21.00
2022-10-23T17:43:12.448Z,20.90
2022-10-23T17:45:48.131Z,20.60
2022-10-23T17:48:22.306Z,20.30
2022-10-23T17:51:04.536Z,20.20
2022-10-23T17:53:39.627Z,20.10
2022-10-23T17:56:20.082Z,20.20
2022-10-23T17:58:58.603Z,20.20
2022-10-23T18:01:34.087Z,20.30
2022-10-23T18:04:09.779Z,20.10
2022-10-23T18:06:48.161Z,20.20
2022-10-23T18:09:22.020Z,20.10
2022-10-23T18:11:56.369Z,20.00
2022-10-23T18:14:35.412Z,20.00
2022-10-23T18:17:11.215Z,20.00
2022-10-23T18:19:44.851Z,19.90
2022-10-23T18:24:57.223Z,19.80
2022-10-23T18:27:31.318Z,19.70
2022-10-23T18:30:07.972Z,19.60
2022-10-23T18:32:41.926Z,19.60
2022-10-23T18:35:15.971Z,19.60
2022-10-23T18:37:50.341Z,19.60
2022-10-23T18:40:27.908Z,19.60
2022-10-23T18:43:02.236Z,19.70
2022-10-23T18:45:39.613Z,19.70
2022-10-23T18:48:13.492Z,19.80
2022-10-23T18:50:47.202Z,19.80
2022-10-23T18:53:21.289Z,19.80
2022-10-23T18:55:55.316Z,19.90
2022-10-23T18:58:30.707Z,20.00
2022-10-23T19:01:06.452Z,19.70
2022-10-23T19:03:40.316Z,19.60
2022-10-23T19:06:14.801Z,19.60
2022-10-23T19:08:49.940Z,19.50
2022-10-23T19:11:25.686Z,19.60
2022-10-23T19:14:00.563Z,19.70
2022-10-23T19:16:44.480Z,19.70
2022-10-23T19:19:23.596Z,19.70
2022-10-23T19:21:58.356Z,19.70
2022-10-23T19:24:36.545Z,19.70
2022-10-23T19:27:10.326Z,19.80
2022-10-23T19:29:47.056Z,19.70
2022-10-23T19:32:23.910Z,19.90
2022-10-23T19:34:57.862Z,20.00
2022-10-23T19:37:31.775Z,20.00
2022-10-23T19:40:07.878Z,20.10
2022-10-23T19:42:43.393Z,20.20
2022-10-23T19:45:19.369Z,20.20
2022-10-23T19:47:55.252Z,20.20
2022-10-23T19:50:29.427Z,20.10
2022-10-23T19:53:03.613Z,20.10
2022-10-23T19:55:37.944Z,20.20
2022-10-23T19:58:12.155Z,20.10
2022-10-23T20:00:46.473Z,20.10
2022-10-23T20:03:21.715Z,20.10
2022-10-23T20:05:55.645Z,20.00
2022-10-23T20:08:32.694Z,20.00
2022-10-23T20:11:09.609Z,19.90
2022-10-23T20:13:42.998Z,19.90
2022-10-23T20:16:22.247Z,19.80
2022-10-23T20:18:57.456Z,19.70
2022-10-23T20:21:31.016Z,19.60
2022-10-23T20:24:05.236Z,19.60
2022-10-23T20:26:39.267Z,19.60
2022-10-23T20:29:12.617Z,19.60
2022-10-23T20:31:46.587Z,19.60
2022-10-23T20:34:23.483Z,19.60
2022-10-23T20:36:57.624Z,19.50
2022-10-23T20:39:34.564Z,19.60
2022-10-23T20:42:10.032Z,19.50
2022-10-23T20:44:43.857Z,19.40
2022-10-23T20:47:18.131Z,19.40
2022-10-23T20:49:54.180Z,19.40
2022-10-23T20:52:30.611Z,19.40
2022-10-23T20:55:07.869Z,19.40
2022-10-23T20:57:41.950Z,19.40
2022-10-23T21:00:17.236Z,19.50
2022-10-23T21:02:52.615Z,19.50
2022-10-23T21:05:29.083Z,19.60
2022-10-23T21:08:03.284Z,19.70
2022-10-23T21:10:36.713Z,19.70
2022-10-23T21:13:10.005Z,19.80
2022-10-23T21:15:43.385Z,19.80
2022-10-23T21:18:26.528Z,19.90
2022-10-23T21:21:14.950Z,19.80
2022-10-23T21:23:48.774Z,19.80
2022-10-23T21:26:23.839Z,19.80
2022-10-23T21:29:17.388Z,19.90
2022-10-23T21:31:57.756Z,19.90
2022-10-23T21:34:32.252Z,19.60
2022-10-23T21:37:13.323Z,19.50
2022-10-23T21:39:48.156Z,19.50
2022-10-23T21:42:22.104Z,19.50
2022-10-23T21:44:56.489Z,19.40
2022-10-23T21:47:30.229Z,19.60
2022-10-23T21:50:03.533Z,19.50
2022-10-23T21:52:39.751Z,19.60
2022-10-23T21:55:14.473Z,19.50
2022-10-23T21:57:48.483Z,19.40
2022-10-23T22:00:23.171Z,19.40
2022-10-23T22:02:57.535Z,19.50
2022-10-23T22:05:31.229Z,19.60
2022-10-23T22:08:07.214Z,19.60
2022-10-23T22:10:40.713Z,19.60
2022-10-23T22:13:14.998Z,19.50
2022-10-23T22:15:48.667Z,19.50
2022-10-23T22:18:22.342Z,19.40
2022-10-23T22:20:58.207Z,19.30
2022-10-23T22:23:36.778Z,19.30
2022-10-23T22:26:23.261Z,19.30
2022-10-23T22:28:58.730Z,19.30
2022-10-23T22:31:34.216Z,19.40
2022-10-23T22:34:25.023Z,19.40
2022-10-23T22:37:04.251Z,19.40
2022-10-23T22:39:39.487Z,19.30
2022-10-23T22:42:13.395Z,19.40
2022-10-23T22:44:47.838Z,19.50
2022-10-23T22:47:22.011Z,19.60
2022-10-23T22:49:55.730Z,19.50
2022-10-23T22:52:29.356Z,19.40
2022-10-23T22:55:05.293Z,19.40
2022-10-23T22:57:39.553Z,19.30
2022-10-23T23:00:14.305Z,19.40
2022-10-23T23:02:47.493Z,19.20
2022-10-23T23:05:21.156Z,19.10
2022-10-23T23:07:54.990Z,19.20
2022-10-23T23:10:31.510Z,19.20
2022-10-23T23:13:05.728Z,19.10
2022-10-23T23:15:44.362Z,19.10
2022-10-23T23:18:17.969Z,19.10
2022-10-23T23:20:52.527Z,19.20
2022-10-23T23:23:26.716Z,19.10
2022-10-23T23:26:02.329Z,19.00
2022-10-23T23:28:36.321Z,18.90
2022-10-23T23:31:11.831Z,19.10
2022-10-23T23:33:45.566Z,19.00
2022-10-23T23:36:22.176Z,19.10
2022-10-23T23:39:00.542Z,19.10
2022-10-23T23:41:36.236Z,19.00
2022-10-23T23:44:10.448Z,18.90
2022-10-23T23:46:44.723Z,19.00
2022-10-23T23:49:18.173Z,19.10
2022-10-23T23:51:52.329Z,19.20
2022-10-23T23:54:25.729Z,19.30
2022-10-23T23:57:07.037Z,19.30
2022-10-23T23:59:44.590Z,19.40
